Time;durP1;ratioP1;P1;durP2;ratioP2;P2;SDS_P1;SDS_P2;PMS_P1;PMS_P2;Temp;Humidity;BMP_temperature;BMP_pressure;BME280_temperature;BME280_humidity;BME280_pressure;Samples;Min_cycle;Max_cycle;Signal;HPM_P1;HPM_P2
2021/06/27 00:01:04;;;;;;;5.50;3.80;;;;;;;;;;4922544;29;20028;-89
2021/06/27 00:03:30;;;;;;;4.80;3.25;;;;;;;;;;4922147;29;20123;-90
2021/06/27 00:05:56;;;;;;;5.88;3.53;;;;;;;;;;4938532;29;20032;-88
2021/06/27 00:08:22;;;;;;;7.07;3.90;;;;;;;;;;4921734;29;20027;-91
2021/06/27 00:10:51;;;;;;;7.30;4.22;;;;;;;;;;4921195;29;20028;-92
2021/06/27 00:13:17;;;;;;;6.28;3.72;;;;;;;;;;4921049;29;20034;-91
2021/06/27 00:15:48;;;;;;;8.85;3.95;;;;;;;;;;4921666;29;20032;-91
2021/06/27 00:18:18;;;;;;;10.10;3.75;;;;;;;;;;4922176;29;20042;-91
2021/06/27 00:20:45;;;;;;;10.02;4.05;;;;;;;;;;4922208;29;20039;-92
2021/06/27 00:23:12;;;;;;;7.10;4.00;;;;;;;;;;4921767;29;20032;-91
2021/06/27 00:25:39;;;;;;;5.63;3.72;;;;;;;;;;4921924;29;20036;-92
2021/06/27 00:28:06;;;;;;;5.90;3.72;;;;;;;;;;4921435;29;20593;-92
2021/06/27 00:30:35;;;;;;;6.05;3.80;;;;;;;;;;4921183;29;20020;-89
2021/06/27 00:33:02;;;;;;;7.53;3.90;;;;;;;;;;4921684;29;20043;-93
2021/06/27 00:35:29;;;;;;;7.63;3.75;;;;;;;;;;4920771;29;20047;-90
2021/06/27 00:37:55;;;;;;;6.85;3.92;;;;;;;;;;4920736;29;20035;-91
2021/06/27 00:40:22;;;;;;;7.40;3.67;;;;;;;;;;4917532;29;20224;-89
2021/06/27 00:42:49;;;;;;;8.02;3.42;;;;;;;;;;4917631;29;20039;-93
2021/06/27 00:45:16;;;;;;;6.22;3.47;;;;;;;;;;4917838;29;20028;-93
2021/06/27 00:47:43;;;;;;;7.15;3.80;;;;;;;;;;4917528;29;20052;-92
2021/06/27 00:50:11;;;;;;;7.50;3.95;;;;;;;;;;4917942;29;20039;-91
2021/06/27 00:52:37;;;;;;;7.63;3.58;;;;;;;;;;4918436;29;20032;-92
2021/06/27 00:55:08;;;;;;;6.60;3.72;;;;;;;;;;4917721;29;20140;-92
2021/06/27 00:57:35;;;;;;;6.32;4.05;;;;;;;;;;4917397;29;20024;-91
2021/06/27 01:00:04;;;;;;;5.72;3.85;;;;;;;;;;4917376;29;20048;-90
2021/06/27 01:02:30;;;;;;;5.93;3.63;;;;;;;;;;4921451;29;20024;-92
2021/06/27 01:04:57;;;;;;;8.05;3.90;;;;;;;;;;4928229;29;20047;-91
2021/06/27 01:07:23;;;;;;;6.50;3.92;;;;;;;;;;4918211;29;20039;-91
2021/06/27 01:09:49;;;;;;;7.00;4.40;;;;;;;;;;4917794;29;20032;-90
2021/06/27 01:12:16;;;;;;;6.68;3.95;;;;;;;;;;4918654;29;20047;-92
2021/06/27 01:14:42;;;;;;;6.60;3.92;;;;;;;;;;4917678;29;20042;-90
2021/06/27 01:17:08;;;;;;;7.15;4.30;;;;;;;;;;4917787;29;20027;-93
2021/06/27 01:19:34;;;;;;;6.57;3.92;;;;;;;;;;4917687;29;20040;-90
2021/06/27 01:22:01;;;;;;;8.93;4.22;;;;;;;;;;4918018;29;20091;-92
2021/06/27 01:24:28;;;;;;;10.07;4.32;;;;;;;;;;4918190;29;20536;-90
2021/06/27 01:26:54;;;;;;;6.63;4.15;;;;;;;;;;4918799;29;20120;-91
2021/06/27 01:29:21;;;;;;;5.90;3.92;;;;;;;;;;4920295;29;20032;-92
2021/06/27 01:31:47;;;;;;;7.68;4.28;;;;;;;;;;4934454;29;20028;-90
2021/06/27 01:34:14;;;;;;;8.05;4.60;;;;;;;;;;4919684;29;20031;-91
2021/06/27 01:36:40;;;;;;;8.15;4.35;;;;;;;;;;4917048;29;20036;-91
2021/06/27 01:39:07;;;;;;;7.43;4.30;;;;;;;;;;4916929;29;20497;-91
2021/06/27 01:41:33;;;;;;;6.30;4.03;;;;;;;;;;4917205;29;20032;-90
2021/06/27 01:43:59;;;;;;;7.05;4.05;;;;;;;;;;4917375;29;20393;-89
2021/06/27 01:46:25;;;;;;;8.68;4.45;;;;;;;;;;4917276;29;20114;-91
2021/06/27 01:48:52;;;;;;;7.70;4.32;;;;;;;;;;4916913;29;20044;-90
2021/06/27 01:51:18;;;;;;;8.70;4.40;;;;;;;;;;4916855;29;20032;-91
2021/06/27 01:53:45;;;;;;;5.97;3.53;;;;;;;;;;4917269;29;20064;-90
2021/06/27 01:56:11;;;;;;;6.47;3.83;;;;;;;;;;4916867;29;20028;-93
2021/06/27 01:58:42;;;;;;;6.03;3.90;;;;;;;;;;4916974;29;20375;-92
2021/06/27 02:01:09;;;;;;;13.95;4.35;;;;;;;;;;4917025;29;20028;-91
2021/06/27 02:03:36;;;;;;;6.30;4.38;;;;;;;;;;4917284;29;20039;-91
2021/06/27 02:06:02;;;;;;;8.55;4.43;;;;;;;;;;4916790;29;20063;-89
2021/06/27 02:08:35;;;;;;;7.38;4.30;;;;;;;;;;4918472;29;20183;-92
2021/06/27 02:11:03;;;;;;;5.68;3.88;;;;;;;;;;4917801;29;20101;-91
2021/06/27 02:13:29;;;;;;;7.80;4.57;;;;;;;;;;4916963;29;20044;-91
2021/06/27 02:15:56;;;;;;;8.93;4.32;;;;;;;;;;4916552;29;20051;-93
2021/06/27 02:18:31;;;;;;;9.73;4.30;;;;;;;;;;4918108;29;20047;-89
2021/06/27 02:21:00;;;;;;;8.63;4.57;;;;;;;;;;4917446;29;20467;-91
2021/06/27 02:23:27;;;;;;;6.55;4.18;;;;;;;;;;4917025;29;20028;-92
2021/06/27 02:25:53;;;;;;;7.72;4.60;;;;;;;;;;4917169;29;20107;-91
2021/06/27 02:28:19;;;;;;;6.68;4.20;;;;;;;;;;4917534;29;20036;-93
2021/06/27 02:30:46;;;;;;;8.25;4.60;;;;;;;;;;4916820;29;20039;-91
2021/06/27 02:33:12;;;;;;;7.53;4.43;;;;;;;;;;4916652;29;20088;-91
2021/06/27 02:35:39;;;;;;;8.65;4.45;;;;;;;;;;4918734;29;20071;-92
2021/06/27 02:38:06;;;;;;;8.52;4.40;;;;;;;;;;4920217;29;20127;-88
2021/06/27 02:40:32;;;;;;;6.65;3.95;;;;;;;;;;4920013;29;20482;-89
2021/06/27 02:42:58;;;;;;;7.00;4.55;;;;;;;;;;4920102;29;20039;-89
2021/06/27 02:45:24;;;;;;;6.63;4.25;;;;;;;;;;4920337;29;20481;-90
2021/06/27 02:47:50;;;;;;;8.45;4.30;;;;;;;;;;4920031;29;20024;-89
2021/06/27 02:50:17;;;;;;;6.30;4.20;;;;;;;;;;4919651;29;20073;-92
2021/06/27 02:52:44;;;;;;;6.82;4.13;;;;;;;;;;4920314;29;20052;-91
2021/06/27 02:55:11;;;;;;;6.82;4.47;;;;;;;;;;4919707;29;20029;-90
2021/06/27 02:57:41;;;;;;;8.30;4.60;;;;;;;;;;4919412;29;20039;-89
2021/06/27 03:00:17;;;;;;;6.55;4.20;;;;;;;;;;4919406;29;20036;-87
2021/06/27 03:02:44;;;;;;;5.32;3.80;;;;;;;;;;4919423;29;20084;-92
2021/06/27 03:05:10;;;;;;;7.22;4.55;;;;;;;;;;4920070;29;20036;-92
2021/06/27 03:07:37;;;;;;;7.63;4.13;;;;;;;;;;4919431;29;20032;-92
2021/06/27 03:10:07;;;;;;;8.45;4.53;;;;;;;;;;4919363;29;20388;-92
2021/06/27 03:12:34;;;;;;;6.57;4.15;;;;;;;;;;4919472;29;20028;-91
2021/06/27 03:15:00;;;;;;;7.60;4.43;;;;;;;;;;4919219;29;20029;-93
2021/06/27 03:17:26;;;;;;;6.28;4.15;;;;;;;;;;4919356;29;20035;-93
2021/06/27 03:19:52;;;;;;;6.18;4.03;;;;;;;;;;4919264;29;20040;-92
2021/06/27 03:22:19;;;;;;;8.80;4.13;;;;;;;;;;4919538;29;20123;-92
2021/06/27 03:24:45;;;;;;;6.90;4.00;;;;;;;;;;4921693;29;20035;-92
2021/06/27 03:27:12;;;;;;;6.57;3.97;;;;;;;;;;4924339;29;20035;-91
2021/06/27 03:29:38;;;;;;;7.25;4.60;;;;;;;;;;4936353;29;20032;-91
2021/06/27 03:32:04;;;;;;;7.15;3.72;;;;;;;;;;4920032;29;20039;-92
2021/06/27 03:34:30;;;;;;;9.02;4.30;;;;;;;;;;4918822;29;20028;-91
2021/06/27 03:36:56;;;;;;;7.57;4.25;;;;;;;;;;4919200;29;20060;-93
2021/06/27 03:39:23;;;;;;;9.55;4.22;;;;;;;;;;4918800;29;20051;-91
2021/06/27 03:41:53;;;;;;;8.25;4.60;;;;;;;;;;4919000;29;20035;-92
2021/06/27 03:44:20;;;;;;;7.60;4.18;;;;;;;;;;4918947;29;20028;-92
2021/06/27 03:46:46;;;;;;;9.25;4.57;;;;;;;;;;4917684;29;20032;-89
2021/06/27 03:49:13;;;;;;;7.90;4.50;;;;;;;;;;4918906;29;20031;-86
2021/06/27 03:51:39;;;;;;;9.68;3.95;;;;;;;;;;4919010;29;20079;-88
2021/06/27 03:54:05;;;;;;;7.18;4.43;;;;;;;;;;4919296;29;20032;-89
2021/06/27 03:56:31;;;;;;;7.03;4.38;;;;;;;;;;4918396;29;20387;-88
2021/06/27 03:58:58;;;;;;;7.63;4.40;;;;;;;;;;4918559;29;20044;-89
2021/06/27 04:01:24;;;;;;;7.68;4.75;;;;;;;;;;4918410;29;20028;-91
2021/06/27 04:03:50;;;;;;;7.38;4.20;;;;;;;;;;4920061;29;20033;-91
2021/06/27 04:06:17;;;;;;;8.02;4.30;;;;;;;;;;4918563;29;20526;-87
2021/06/27 04:08:43;;;;;;;8.80;5.15;;;;;;;;;;4918315;29;20505;-92
2021/06/27 04:11:09;;;;;;;6.60;4.20;;;;;;;;;;4919274;29;20032;-87
2021/06/27 04:13:36;;;;;;;6.18;4.10;;;;;;;;;;4918160;29;20060;-91
2021/06/27 04:16:03;;;;;;;7.13;3.83;;;;;;;;;;4918590;29;20035;-88
2021/06/27 04:18:30;;;;;;;7.57;3.95;;;;;;;;;;4922223;29;20040;-87
2021/06/27 04:20:57;;;;;;;6.25;3.75;;;;;;;;;;4928467;29;20028;-91
2021/06/27 04:23:24;;;;;;;5.20;3.20;;;;;;;;;;4918777;29;20031;-89
2021/06/27 04:25:50;;;;;;;5.78;3.42;;;;;;;;;;4918471;29;20104;-90
2021/06/27 04:28:16;;;;;;;8.57;3.58;;;;;;;;;;4917907;29;20024;-91
2021/06/27 04:30:43;;;;;;;4.68;3.05;;;;;;;;;;4918189;29;20481;-91
2021/06/27 04:33:10;;;;;;;6.63;3.60;;;;;;;;;;4918151;29;20381;-91
2021/06/27 04:35:37;;;;;;;5.28;3.38;;;;;;;;;;4918939;29;20035;-92
2021/06/27 04:38:04;;;;;;;5.10;2.85;;;;;;;;;;4918039;29;20051;-89
2021/06/27 04:40:31;;;;;;;6.70;2.90;;;;;;;;;;4917782;29;20044;-91
2021/06/27 04:42:57;;;;;;;4.10;2.90;;;;;;;;;;4917688;29;20103;-92
2021/06/27 04:45:23;;;;;;;8.05;3.33;;;;;;;;;;4918051;29;20431;-88
2021/06/27 04:47:49;;;;;;;4.20;2.97;;;;;;;;;;4918310;29;20430;-90
2021/06/27 04:50:15;;;;;;;4.20;2.83;;;;;;;;;;4919063;29;20114;-90
2021/06/27 04:52:41;;;;;;;4.28;2.80;;;;;;;;;;4917956;29;20036;-90
2021/06/27 04:55:08;;;;;;;4.00;2.80;;;;;;;;;;4919753;29;20489;-90
2021/06/27 04:57:35;;;;;;;3.90;2.83;;;;;;;;;;4918456;29;20548;-90
2021/06/27 05:00:01;;;;;;;4.35;2.75;;;;;;;;;;4917908;29;20047;-91
2021/06/27 05:02:27;;;;;;;5.03;2.80;;;;;;;;;;4918037;29;20035;-92
2021/06/27 05:04:53;;;;;;;6.47;3.10;;;;;;;;;;4918839;29;20491;-90
2021/06/27 05:07:23;;;;;;;4.03;2.80;;;;;;;;;;4918192;29;20024;-90
2021/06/27 05:09:50;;;;;;;4.53;2.90;;;;;;;;;;4917314;29;20141;-88
2021/06/27 05:12:16;;;;;;;3.53;2.60;;;;;;;;;;4917228;29;20028;-88
2021/06/27 05:14:43;;;;;;;4.05;2.50;;;;;;;;;;4917772;29;20032;-89
2021/06/27 05:17:09;;;;;;;7.28;2.85;;;;;;;;;;4917306;29;20545;-88
2021/06/27 05:19:35;;;;;;;5.00;2.88;;;;;;;;;;4918373;29;20117;-89
2021/06/27 05:22:02;;;;;;;4.35;2.80;;;;;;;;;;4916966;29;20036;-88
2021/06/27 05:24:28;;;;;;;6.55;2.55;;;;;;;;;;4916990;29;20031;-87
2021/06/27 05:26:54;;;;;;;3.58;2.70;;;;;;;;;;4916979;29;20032;-88
2021/06/27 05:29:20;;;;;;;5.13;2.53;;;;;;;;;;4916653;29;20028;-89
2021/06/27 05:31:46;;;;;;;4.25;2.85;;;;;;;;;;4918131;29;20039;-91
2021/06/27 05:34:12;;;;;;;3.78;2.42;;;;;;;;;;4917691;29;20020;-90
2021/06/27 05:36:39;;;;;;;4.05;2.47;;;;;;;;;;4915925;29;20568;-86
2021/06/27 05:39:09;;;;;;;2.78;2.13;;;;;;;;;;4915596;29;20048;-86
2021/06/27 05:41:37;;;;;;;3.20;2.50;;;;;;;;;;4915947;29;20035;-86
2021/06/27 05:44:06;;;;;;;4.53;2.50;;;;;;;;;;4917304;29;20481;-87
2021/06/27 05:46:33;;;;;;;3.53;2.20;;;;;;;;;;4917199;29;20042;-87
2021/06/27 05:49:00;;;;;;;2.58;2.05;;;;;;;;;;4917425;29;20032;-92
2021/06/27 05:51:26;;;;;;;3.33;2.28;;;;;;;;;;4917210;29;20062;-93
2021/06/27 05:53:53;;;;;;;4.25;2.20;;;;;;;;;;4917179;29;20375;-87
2021/06/27 05:56:20;;;;;;;3.25;2.40;;;;;;;;;;4916267;29;20028;-86
2021/06/27 05:58:47;;;;;;;3.70;2.10;;;;;;;;;;4915789;29;20040;-86
2021/06/27 06:01:14;;;;;;;4.40;2.60;;;;;;;;;;4916141;29;20025;-89
2021/06/27 06:03:40;;;;;;;4.30;2.80;;;;;;;;;;4917531;29;20051;-87
2021/06/27 06:06:07;;;;;;;4.18;2.30;;;;;;;;;;4916325;29;20028;-90
2021/06/27 06:08:33;;;;;;;3.15;2.10;;;;;;;;;;4916453;29;20123;-86
2021/06/27 06:11:00;;;;;;;3.28;2.38;;;;;;;;;;4919854;29;20028;-87
2021/06/27 06:13:26;;;;;;;4.40;2.45;;;;;;;;;;4919584;29;20088;-88
2021/06/27 06:15:52;;;;;;;3.28;2.10;;;;;;;;;;4920650;29;20024;-89
2021/06/27 06:18:18;;;;;;;3.22;2.20;;;;;;;;;;4920678;29;20386;-89
2021/06/27 06:20:45;;;;;;;3.60;2.15;;;;;;;;;;4919739;29;20438;-92
2021/06/27 06:23:11;;;;;;;9.20;2.40;;;;;;;;;;4921109;29;20039;-86
2021/06/27 06:25:37;;;;;;;3.28;2.13;;;;;;;;;;4919567;29;20032;-87
2021/06/27 06:28:03;;;;;;;2.85;2.08;;;;;;;;;;4919887;29;20028;-90
2021/06/27 06:30:29;;;;;;;2.97;2.08;;;;;;;;;;4919098;29;20038;-87
2021/06/27 06:32:55;;;;;;;3.10;2.05;;;;;;;;;;4919024;29;20025;-87
2021/06/27 06:35:21;;;;;;;3.95;2.30;;;;;;;;;;4919189;29;20520;-86
2021/06/27 06:37:47;;;;;;;3.65;2.20;;;;;;;;;;4919433;29;20036;-85
2021/06/27 06:40:14;;;;;;;2.95;2.25;;;;;;;;;;4919796;29;20060;-92
2021/06/27 06:42:40;;;;;;;2.97;2.13;;;;;;;;;;4919437;29;20541;-87
2021/06/27 06:45:06;;;;;;;3.75;2.47;;;;;;;;;;4919468;29;20016;-87
2021/06/27 06:47:33;;;;;;;3.40;2.05;;;;;;;;;;4919337;29;20035;-86
2021/06/27 06:49:59;;;;;;;8.73;1.95;;;;;;;;;;4919291;29;20035;-87
2021/06/27 06:52:25;;;;;;;3.65;2.20;;;;;;;;;;4919413;29;20485;-89
2021/06/27 06:54:51;;;;;;;3.85;2.25;;;;;;;;;;4919539;29;20110;-88
2021/06/27 06:57:17;;;;;;;3.20;2.17;;;;;;;;;;4921009;29;20164;-90
2021/06/27 06:59:43;;;;;;;4.57;2.53;;;;;;;;;;4919324;29;20028;-90
2021/06/27 07:02:09;;;;;;;3.90;2.20;;;;;;;;;;4919276;29;20111;-87
2021/06/27 07:04:35;;;;;;;6.03;1.98;;;;;;;;;;4918975;29;20059;-92
2021/06/27 07:07:02;;;;;;;3.38;2.10;;;;;;;;;;4922417;29;20028;-95
2021/06/27 07:09:30;;;;;;;3.30;2.20;;;;;;;;;;4922480;29;20048;-89
2021/06/27 07:11:56;;;;;;;3.20;2.00;;;;;;;;;;4920119;29;20036;-87
2021/06/27 07:14:22;;;;;;;2.88;2.08;;;;;;;;;;4920555;29;20044;-87
2021/06/27 07:16:49;;;;;;;2.95;1.88;;;;;;;;;;4919033;29;20087;-93
2021/06/27 07:19:15;;;;;;;2.78;2.22;;;;;;;;;;4920448;29;20039;-87
2021/06/27 07:21:43;;;;;;;2.90;1.80;;;;;;;;;;4918292;29;20052;-92
2021/06/27 07:24:10;;;;;;;4.43;1.95;;;;;;;;;;4919493;29;20024;-86
2021/06/27 07:26:36;;;;;;;2.63;1.90;;;;;;;;;;4918689;29;20032;-90
2021/06/27 07:29:02;;;;;;;2.35;1.90;;;;;;;;;;4920275;29;20036;-91
2021/06/27 07:31:28;;;;;;;3.50;1.80;;;;;;;;;;4918582;29;20032;-87
2021/06/27 07:33:55;;;;;;;7.43;1.92;;;;;;;;;;4918083;29;20064;-86
2021/06/27 07:36:21;;;;;;;4.40;2.13;;;;;;;;;;4918395;29;20047;-91
2021/06/27 07:38:47;;;;;;;5.68;2.10;;;;;;;;;;4922916;29;20059;-86
2021/06/27 07:41:14;;;;;;;2.67;1.88;;;;;;;;;;4938654;29;20035;-91
2021/06/27 07:43:40;;;;;;;3.50;1.98;;;;;;;;;;4938562;29;20047;-85
2021/06/27 07:46:07;;;;;;;2.88;2.08;;;;;;;;;;4920917;29;20020;-86
2021/06/27 07:48:33;;;;;;;3.13;1.92;;;;;;;;;;4920741;29;20035;-85
2021/06/27 07:51:00;;;;;;;3.42;2.17;;;;;;;;;;4938188;29;20051;-95
2021/06/27 07:53:26;;;;;;;3.53;1.70;;;;;;;;;;4938401;29;20055;-86
2021/06/27 07:55:52;;;;;;;2.30;1.77;;;;;;;;;;4920715;29;20126;-85
2021/06/27 07:58:19;;;;;;;3.17;1.73;;;;;;;;;;4921036;29;20035;-85
2021/06/27 08:00:45;;;;;;;3.63;2.00;;;;;;;;;;4920472;29;20035;-85
2021/06/27 08:03:12;;;;;;;2.83;1.83;;;;;;;;;;4937698;29;20136;-93
2021/06/27 08:05:38;;;;;;;4.38;2.05;;;;;;;;;;4938277;29;20031;-93
2021/06/27 08:08:05;;;;;;;2.15;1.58;;;;;;;;;;4920563;29;20107;-84
2021/06/27 08:10:31;;;;;;;3.20;1.98;;;;;;;;;;4937548;29;20028;-85
2021/06/27 08:12:58;;;;;;;2.53;1.80;;;;;;;;;;4937439;29;20034;-85
2021/06/27 08:15:24;;;;;;;2.50;1.90;;;;;;;;;;4937399;29;20087;-85
2021/06/27 08:17:51;;;;;;;2.22;1.63;;;;;;;;;;4937296;29;20039;-85
2021/06/27 08:20:19;;;;;;;2.40;1.70;;;;;;;;;;4920458;29;20401;-85
2021/06/27 08:22:45;;;;;;;3.08;1.75;;;;;;;;;;4937947;29;20027;-84
2021/06/27 08:25:12;;;;;;;3.60;1.90;;;;;;;;;;4937889;29;20023;-85
2021/06/27 08:27:39;;;;;;;3.10;1.92;;;;;;;;;;4937560;29;20079;-84
2021/06/27 08:30:08;;;;;;;4.05;1.80;;;;;;;;;;4920386;29;20027;-84
2021/06/27 08:32:35;;;;;;;4.53;2.22;;;;;;;;;;4936615;29;20422;-85
2021/06/27 08:35:01;;;;;;;2.67;2.10;;;;;;;;;;4937624;29;20039;-85
2021/06/27 08:37:27;;;;;;;2.67;1.70;;;;;;;;;;4937594;29;20417;-85
2021/06/27 08:39:54;;;;;;;9.20;1.80;;;;;;;;;;4936918;29;20058;-86
2021/06/27 08:42:21;;;;;;;2.90;1.63;;;;;;;;;;4937634;29;20342;-85
2021/06/27 08:44:50;;;;;;;2.65;1.48;;;;;;;;;;4937483;29;20477;-93
2021/06/27 08:47:17;;;;;;;2.70;1.70;;;;;;;;;;4919836;29;20083;-85
2021/06/27 08:49:47;;;;;;;2.33;1.85;;;;;;;;;;4936847;29;20042;-84
2021/06/27 08:52:16;;;;;;;2.53;1.80;;;;;;;;;;4920332;29;20119;-85
2021/06/27 08:54:43;;;;;;;2.42;1.75;;;;;;;;;;4936906;29;20393;-92
2021/06/27 08:57:10;;;;;;;2.17;1.63;;;;;;;;;;4936872;29;20034;-85
2021/06/27 08:59:37;;;;;;;2.70;1.60;;;;;;;;;;4936726;29;20036;-85
2021/06/27 09:02:03;;;;;;;3.05;1.73;;;;;;;;;;4919839;29;20501;-85
2021/06/27 09:04:31;;;;;;;3.28;1.67;;;;;;;;;;4920166;29;20401;-83
2021/06/27 09:07:18;;;;;;;2.25;1.73;;;;;;;;;;4919571;29;20031;-84
2021/06/27 09:09:44;;;;;;;2.55;1.52;;;;;;;;;;4937829;29;20035;-84
2021/06/27 09:12:13;;;;;;;3.00;1.58;;;;;;;;;;4937425;29;20103;-85
2021/06/27 09:14:40;;;;;;;3.00;1.40;;;;;;;;;;4937386;29;20031;-88
2021/06/27 09:17:09;;;;;;;2.90;1.80;;;;;;;;;;4920730;29;20024;-83
2021/06/27 09:19:51;;;;;;;2.20;1.73;;;;;;;;;;4920729;29;20038;-84
2021/06/27 09:22:17;;;;;;;2.75;1.75;;;;;;;;;;4920902;29;20540;-86
2021/06/27 09:24:45;;;;;;;2.70;1.55;;;;;;;;;;4943374;29;20039;-88
2021/06/27 09:27:23;;;;;;;3.53;1.65;;;;;;;;;;4921663;29;20200;-92
2021/06/27 09:29:50;;;;;;;2.72;1.63;;;;;;;;;;4920296;29;20082;-85
2021/06/27 09:32:20;;;;;;;3.00;1.70;;;;;;;;;;4919906;29;20036;-85
2021/06/27 09:34:46;;;;;;;2.00;1.42;;;;;;;;;;4937212;29;20357;-85
2021/06/27 09:37:14;;;;;;;2.78;1.52;;;;;;;;;;4919585;29;20091;-82
2021/06/27 09:39:56;;;;;;;2.15;1.60;;;;;;;;;;4918988;29;20055;-85
2021/06/27 09:42:23;;;;;;;2.20;1.52;;;;;;;;;;4919444;29;20059;-85
2021/06/27 09:45:02;;;;;;;2.55;1.52;;;;;;;;;;4922206;29;20027;-83
2021/06/27 09:47:29;;;;;;;2.88;1.25;;;;;;;;;;4923855;29;20042;-86
2021/06/27 09:49:55;;;;;;;2.60;1.50;;;;;;;;;;4939882;29;20525;-84
2021/06/27 09:52:40;;;;;;;2.60;1.45;;;;;;;;;;4923950;29;20079;-89
2021/06/27 09:55:11;;;;;;;2.15;1.20;;;;;;;;;;4924141;29;20042;-87
2021/06/27 09:57:37;;;;;;;3.50;1.55;;;;;;;;;;4941013;29;20106;-88
2021/06/27 10:00:22;;;;;;;3.58;1.30;;;;;;;;;;4941221;29;20028;-88
2021/06/27 10:03:04;;;;;;;1.83;1.20;;;;;;;;;;4923371;29;20042;-88
2021/06/27 10:05:33;;;;;;;2.25;1.33;;;;;;;;;;4923046;29;20020;-87
2021/06/27 10:07:59;;;;;;;1.90;1.20;;;;;;;;;;4923054;29;20023;-87
2021/06/27 10:10:25;;;;;;;1.77;1.30;;;;;;;;;;4940908;29;20032;-87
2021/06/27 10:12:52;;;;;;;2.45;1.45;;;;;;;;;;4922865;29;20036;-89
2021/06/27 10:15:18;;;;;;;2.50;1.23;;;;;;;;;;4922785;29;20477;-87
2021/06/27 10:17:46;;;;;;;1.80;1.40;;;;;;;;;;4940318;29;20039;-88
2021/06/27 10:20:13;;;;;;;2.40;1.40;;;;;;;;;;4922733;29;20031;-86
2021/06/27 10:22:41;;;;;;;2.03;1.40;;;;;;;;;;4939882;29;20027;-89
2021/06/27 10:25:11;;;;;;;7.22;1.65;;;;;;;;;;4940022;29;20028;-90
2021/06/27 10:27:38;;;;;;;3.05;1.10;;;;;;;;;;4923080;29;20028;-89
2021/06/27 10:30:06;;;;;;;2.70;1.30;;;;;;;;;;4922786;29;20034;-87
2021/06/27 10:32:32;;;;;;;2.50;1.60;;;;;;;;;;4922461;29;20043;-86
2021/06/27 10:34:59;;;;;;;1.75;1.20;;;;;;;;;;4922357;29;20503;-87
2021/06/27 10:37:33;;;;;;;3.38;1.52;;;;;;;;;;4922268;29;20027;-89
2021/06/27 10:40:00;;;;;;;3.97;1.60;;;;;;;;;;4922351;29;20063;-85
2021/06/27 10:42:44;;;;;;;3.10;1.40;;;;;;;;;;4922455;29;20083;-89
2021/06/27 10:45:11;;;;;;;4.45;1.70;;;;;;;;;;4922652;29;20095;-91
2021/06/27 10:47:37;;;;;;;3.75;1.58;;;;;;;;;;4923214;29;20032;-90
2021/06/27 10:50:10;;;;;;;3.45;2.00;;;;;;;;;;4923120;29;20481;-90
2021/06/27 10:52:57;;;;;;;2.25;1.50;;;;;;;;;;4923013;29;20492;-89
2021/06/27 10:55:26;;;;;;;3.85;1.80;;;;;;;;;;4937829;29;20034;-87
2021/06/27 10:57:53;;;;;;;2.40;1.60;;;;;;;;;;4923009;29;20043;-90
2021/06/27 11:00:19;;;;;;;2.88;1.55;;;;;;;;;;4922766;29;20119;-88
2021/06/27 11:02:45;;;;;;;3.83;1.67;;;;;;;;;;4922449;29;20035;-89
2021/06/27 11:05:33;;;;;;;5.82;1.80;;;;;;;;;;4922864;29;20035;-88
2021/06/27 11:08:04;;;;;;;3.47;1.52;;;;;;;;;;4922851;29;20410;-86
2021/06/27 11:10:31;;;;;;;3.00;1.90;;;;;;;;;;4938579;29;20042;-86
2021/06/27 11:12:57;;;;;;;4.35;1.70;;;;;;;;;;4922935;29;20031;-85
2021/06/27 11:15:23;;;;;;;2.63;1.83;;;;;;;;;;4923204;29;20031;-86
2021/06/27 11:17:54;;;;;;;3.03;1.95;;;;;;;;;;4921680;29;20481;-84
2021/06/27 11:20:20;;;;;;;2.80;1.52;;;;;;;;;;4941851;29;20032;-85
2021/06/27 11:22:47;;;;;;;3.08;1.95;;;;;;;;;;4921913;29;20023;-84
2021/06/27 11:25:32;;;;;;;2.45;1.65;;;;;;;;;;4922807;29;20031;-82
2021/06/27 11:27:58;;;;;;;3.47;1.73;;;;;;;;;;4938663;29;20027;-86
2021/06/27 11:30:26;;;;;;;2.47;1.80;;;;;;;;;;4922077;29;20028;-86
2021/06/27 11:32:53;;;;;;;3.78;1.80;;;;;;;;;;4938505;29;20050;-84
2021/06/27 11:35:37;;;;;;;2.30;1.60;;;;;;;;;;4938433;29;20111;-86
2021/06/27 11:38:04;;;;;;;2.88;1.52;;;;;;;;;;4921226;29;20036;-85
2021/06/27 11:40:44;;;;;;;2.92;1.77;;;;;;;;;;4937999;29;20390;-85
2021/06/27 11:43:10;;;;;;;3.58;1.90;;;;;;;;;;4921080;29;20474;-85
2021/06/27 11:45:38;;;;;;;2.30;1.70;;;;;;;;;;4938017;29;20107;-85
2021/06/27 11:48:06;;;;;;;3.33;1.50;;;;;;;;;;4920988;29;20544;-86
2021/06/27 11:50:33;;;;;;;3.15;1.60;;;;;;;;;;4921282;29;20075;-86
2021/06/27 11:53:01;;;;;;;2.28;1.52;;;;;;;;;;4921154;29;20080;-85
2021/06/27 11:55:28;;;;;;;2.67;1.70;;;;;;;;;;4937919;29;20385;-86
2021/06/27 11:57:54;;;;;;;3.03;1.70;;;;;;;;;;4938681;29;20051;-88
2021/06/27 12:00:21;;;;;;;3.30;1.70;;;;;;;;;;4938056;29;20155;-88
2021/06/27 12:02:47;;;;;;;2.53;1.50;;;;;;;;;;4938390;29;20058;-87
2021/06/27 12:05:15;;;;;;;2.25;1.60;;;;;;;;;;4937936;29;20552;-85
2021/06/27 12:07:42;;;;;;;8.90;1.85;;;;;;;;;;4919829;29;20384;-83
2021/06/27 12:10:08;;;;;;;2.50;1.58;;;;;;;;;;4937757;29;20373;-84
2021/06/27 12:12:48;;;;;;;2.58;1.60;;;;;;;;;;4920671;29;20038;-84
2021/06/27 12:15:20;;;;;;;7.32;1.98;;;;;;;;;;4937437;29;20028;-85
2021/06/27 12:17:48;;;;;;;3.33;1.73;;;;;;;;;;4920343;29;20531;-94
2021/06/27 12:20:14;;;;;;;2.28;1.55;;;;;;;;;;4938044;29;20107;-87
2021/06/27 12:22:51;;;;;;;2.92;1.50;;;;;;;;;;4921338;29;20099;-85
2021/06/27 12:25:23;;;;;;;2.55;1.70;;;;;;;;;;4920792;29;20036;-89
2021/06/27 12:27:49;;;;;;;4.30;1.70;;;;;;;;;;4920832;29;20106;-87
2021/06/27 12:30:16;;;;;;;3.00;1.90;;;;;;;;;;4920379;29;20436;-87
2021/06/27 12:33:04;;;;;;;5.40;2.30;;;;;;;;;;4916098;29;20127;-86
2021/06/27 12:35:31;;;;;;;3.92;1.73;;;;;;;;;;4910222;29;20036;-86
2021/06/27 12:37:58;;;;;;;3.05;2.17;;;;;;;;;;4907651;29;20039;-87
2021/06/27 12:40:24;;;;;;;2.03;1.40;;;;;;;;;;4910005;29;20055;-85
2021/06/27 12:42:51;;;;;;;2.55;1.75;;;;;;;;;;4924684;29;20488;-85
2021/06/27 12:45:18;;;;;;;2.85;1.80;;;;;;;;;;4909544;29;20434;-89
2021/06/27 12:47:45;;;;;;;2.85;1.95;;;;;;;;;;4925159;29;20491;-86
2021/06/27 12:50:11;;;;;;;2.55;1.67;;;;;;;;;;4913095;29;20394;-89
2021/06/27 12:52:37;;;;;;;2.92;1.90;;;;;;;;;;4903414;29;20023;-84
2021/06/27 12:55:10;;;;;;;2.17;1.55;;;;;;;;;;4927835;29;20035;-84
2021/06/27 12:57:36;;;;;;;5.80;1.70;;;;;;;;;;4922625;29;20321;-84
2021/06/27 13:00:04;;;;;;;2.65;1.60;;;;;;;;;;4930384;29;20038;-84
2021/06/27 13:02:31;;;;;;;2.80;1.80;;;;;;;;;;4914084;29;20055;-84
2021/06/27 13:05:02;;;;;;;3.83;1.58;;;;;;;;;;4925752;29;20094;-85
2021/06/27 13:07:32;;;;;;;2.60;1.50;;;;;;;;;;4909505;29;20027;-85
2021/06/27 13:10:17;;;;;;;2.35;1.50;;;;;;;;;;4929522;29;20024;-85
2021/06/27 13:13:01;;;;;;;2.83;1.73;;;;;;;;;;4924473;29;20028;-84
2021/06/27 13:15:33;;;;;;;6.30;2.00;;;;;;;;;;4915875;29;20036;-87
2021/06/27 13:18:06;;;;;;;3.17;1.77;;;;;;;;;;4900446;29;20378;-85
2021/06/27 13:20:35;;;;;;;2.08;1.52;;;;;;;;;;4900667;29;20036;-89
2021/06/27 13:23:03;;;;;;;4.80;1.80;;;;;;;;;;4901506;29;20557;-87
2021/06/27 13:25:40;;;;;;;2.65;1.55;;;;;;;;;;4902714;29;20064;-91
2021/06/27 13:28:08;;;;;;;3.70;1.77;;;;;;;;;;4901388;29;20028;-90
2021/06/27 13:30:46;;;;;;;3.85;2.00;;;;;;;;;;4917410;29;20062;-85
2021/06/27 13:33:13;;;;;;;2.53;1.65;;;;;;;;;;4900285;29;20031;-84
2021/06/27 13:35:43;;;;;;;2.67;1.77;;;;;;;;;;4900307;29;20127;-83
2021/06/27 13:38:11;;;;;;;2.85;1.83;;;;;;;;;;4900210;29;20088;-91
2021/06/27 13:40:38;;;;;;;4.88;1.95;;;;;;;;;;4896842;29;20052;-85
2021/06/27 13:43:05;;;;;;;5.57;2.00;;;;;;;;;;4897110;29;20037;-83
2021/06/27 13:45:32;;;;;;;2.55;1.80;;;;;;;;;;4898467;29;20068;-93
2021/06/27 13:47:58;;;;;;;3.05;1.65;;;;;;;;;;4897105;29;20029;-95
2021/06/27 13:50:25;;;;;;;2.88;1.80;;;;;;;;;;4897006;29;20486;-82
2021/06/27 13:52:52;;;;;;;2.88;1.85;;;;;;;;;;4898394;29;20024;-84
2021/06/27 13:55:19;;;;;;;2.10;1.40;;;;;;;;;;4896908;29;20498;-84
2021/06/27 13:57:46;;;;;;;3.25;2.03;;;;;;;;;;4898124;29;20025;-85
2021/06/27 14:00:13;;;;;;;3.38;2.00;;;;;;;;;;4899083;29;20036;-92
2021/06/27 14:02:40;;;;;;;2.90;1.65;;;;;;;;;;4898199;29;20103;-84
2021/06/27 14:05:11;;;;;;;2.80;1.90;;;;;;;;;;4897165;29;20035;-84
2021/06/27 14:07:37;;;;;;;3.53;2.10;;;;;;;;;;4895592;29;20102;-83
2021/06/27 14:10:04;;;;;;;2.40;1.60;;;;;;;;;;4896726;29;20025;-84
2021/06/27 14:12:31;;;;;;;3.47;2.00;;;;;;;;;;4898204;29;20096;-92
2021/06/27 14:14:59;;;;;;;3.92;1.70;;;;;;;;;;4897089;29;20033;-92
2021/06/27 14:17:26;;;;;;;2.83;1.80;;;;;;;;;;4897195;29;20028;-84
2021/06/27 14:19:52;;;;;;;2.50;1.70;;;;;;;;;;4897052;29;20405;-83
2021/06/27 14:22:18;;;;;;;3.13;1.83;;;;;;;;;;4896918;29;20028;-83
2021/06/27 14:24:44;;;;;;;2.38;1.77;;;;;;;;;;4897221;29;20466;-84
2021/06/27 14:27:11;;;;;;;2.33;1.70;;;;;;;;;;4896889;29;20076;-84
2021/06/27 14:29:38;;;;;;;3.20;1.92;;;;;;;;;;4897595;29;20039;-92
2021/06/27 14:32:06;;;;;;;3.25;1.80;;;;;;;;;;4901267;29;20036;-83
2021/06/27 14:34:33;;;;;;;3.05;2.00;;;;;;;;;;4900731;29;20127;-93
2021/06/27 14:37:00;;;;;;;3.30;2.00;;;;;;;;;;4900614;29;20119;-93
2021/06/27 14:39:26;;;;;;;4.40;2.30;;;;;;;;;;4900529;29;20052;-93
2021/06/27 14:41:53;;;;;;;7.57;3.70;;;;;;;;;;4900643;29;20032;-84
2021/06/27 14:44:20;;;;;;;3.45;2.10;;;;;;;;;;4901455;29;20028;-84
2021/06/27 14:46:47;;;;;;;3.05;2.22;;;;;;;;;;4902184;29;20060;-92